sensor_id;sensor_type;location;lat;lon;timestamp;pressure;altitude;pressure_sealevel;temperature;humidity
77725;BME280;66892;53.236;6.550;2023-02-15T00:01:13;103093.28;;;0.36;97.48
77725;BME280;66892;53.236;6.550;2023-02-15T00:03:39;103097.78;;;0.39;98.26
77725;BME280;66892;53.236;6.550;2023-02-15T00:06:05;103102.34;;;0.41;98.40
77725;BME280;66892;53.236;6.550;2023-02-15T00:08:32;103092.38;;;0.36;98.16
77725;BME280;66892;53.236;6.550;2023-02-15T00:11:05;103090.59;;;0.35;97.84
77725;BME280;66892;53.236;6.550;2023-02-15T00:13:31;103088.53;;;0.42;98.47
77725;BME280;66892;53.236;6.550;2023-02-15T00:16:02;103087.38;;;0.39;97.68
77725;BME280;66892;53.236;6.550;2023-02-15T00:18:28;103083.56;;;0.34;97.46
77725;BME280;66892;53.236;6.550;2023-02-15T00:20:54;103086.50;;;0.27;98.31
77725;BME280;66892;53.236;6.550;2023-02-15T00:23:20;103079.59;;;0.27;98.20
77725;BME280;66892;53.236;6.550;2023-02-15T00:25:46;103077.91;;;0.28;98.14
77725;BME280;66892;53.236;6.550;2023-02-15T00:28:12;103076.88;;;0.26;98.04
77725;BME280;66892;53.236;6.550;2023-02-15T00:30:38;103074.03;;;0.23;98.09
77725;BME280;66892;53.236;6.550;2023-02-15T00:33:06;103074.84;;;0.22;97.35
77725;BME280;66892;53.236;6.550;2023-02-15T00:35:32;103077.13;;;0.29;98.00
77725;BME280;66892;53.236;6.550;2023-02-15T00:37:58;103072.47;;;0.25;97.95
77725;BME280;66892;53.236;6.550;2023-02-15T00:40:24;103071.44;;;0.23;97.69
77725;BME280;66892;53.236;6.550;2023-02-15T00:42:51;103068.84;;;0.23;97.42
77725;BME280;66892;53.236;6.550;2023-02-15T00:45:17;103058.44;;;0.23;98.52
77725;BME280;66892;53.236;6.550;2023-02-15T00:47:43;103064.22;;;0.19;97.82
77725;BME280;66892;53.236;6.550;2023-02-15T00:50:10;103070.44;;;0.21;98.39
77725;BME280;66892;53.236;6.550;2023-02-15T00:52:36;103067.75;;;0.19;97.89
77725;BME280;66892;53.236;6.550;2023-02-15T00:55:02;103067.75;;;0.19;98.75
77725;BME280;66892;53.236;6.550;2023-02-15T00:57:28;103061.41;;;0.16;97.70
77725;BME280;66892;53.236;6.550;2023-02-15T00:59:54;103067.38;;;0.15;97.61
77725;BME280;66892;53.236;6.550;2023-02-15T01:02:20;103072.69;;;0.16;98.93
77725;BME280;66892;53.236;6.550;2023-02-15T01:04:46;103064.44;;;0.10;97.88
77725;BME280;66892;53.236;6.550;2023-02-15T01:07:14;103069.53;;;0.09;97.39
77725;BME280;66892;53.236;6.550;2023-02-15T01:09:40;103056.63;;;0.10;97.81
77725;BME280;66892;53.236;6.550;2023-02-15T01:12:06;103058.44;;;0.11;99.04
77725;BME280;66892;53.236;6.550;2023-02-15T01:14:32;103058.22;;;0.08;97.86
77725;BME280;66892;53.236;6.550;2023-02-15T01:16:58;103060.28;;;0.12;98.45
77725;BME280;66892;53.236;6.550;2023-02-15T01:19:24;103054.03;;;0.10;98.42
77725;BME280;66892;53.236;6.550;2023-02-15T01:21:50;103049.88;;;0.12;98.31
77725;BME280;66892;53.236;6.550;2023-02-15T01:24:17;103043.16;;;0.04;97.59
77725;BME280;66892;53.236;6.550;2023-02-15T01:26:43;103036.97;;;0.02;97.58
77725;BME280;66892;53.236;6.550;2023-02-15T01:29:09;103035.38;;;0.04;97.86
77725;BME280;66892;53.236;6.550;2023-02-15T01:31:35;103033.59;;;0.03;98.75
77725;BME280;66892;53.236;6.550;2023-02-15T01:34:01;103034.47;;;0.04;97.81
77725;BME280;66892;53.236;6.550;2023-02-15T01:36:27;103034.22;;;0.00;98.31
77725;BME280;66892;53.236;6.550;2023-02-15T01:38:54;103033.91;;;-0.04;98.42
77725;BME280;66892;53.236;6.550;2023-02-15T01:41:21;103025.28;;;-0.03;97.99
77725;BME280;66892;53.236;6.550;2023-02-15T01:43:53;103017.97;;;0.03;98.95
77725;BME280;66892;53.236;6.550;2023-02-15T01:46:23;103018.28;;;0.08;98.58
77725;BME280;66892;53.236;6.550;2023-02-15T01:48:53;103005.75;;;0.02;97.80
77725;BME280;66892;53.236;6.550;2023-02-15T01:51:23;103014.25;;;-0.01;98.19
77725;BME280;66892;53.236;6.550;2023-02-15T01:53:57;103010.59;;;-0.03;98.09
77725;BME280;66892;53.236;6.550;2023-02-15T01:56:28;103009.13;;;0.01;98.25
77725;BME280;66892;53.236;6.550;2023-02-15T01:58:57;103013.34;;;-0.01;98.01
77725;BME280;66892;53.236;6.550;2023-02-15T02:01:27;103018.41;;;-0.03;97.44
77725;BME280;66892;53.236;6.550;2023-02-15T02:03:59;103007.34;;;0.00;98.40
77725;BME280;66892;53.236;6.550;2023-02-15T02:06:28;103005.31;;;-0.04;97.76
77725;BME280;66892;53.236;6.550;2023-02-15T02:08:56;102997.84;;;-0.11;98.13
77725;BME280;66892;53.236;6.550;2023-02-15T02:11:22;102998.19;;;-0.07;98.71
77725;BME280;66892;53.236;6.550;2023-02-15T02:13:51;102999.44;;;-0.13;98.40
77725;BME280;66892;53.236;6.550;2023-02-15T02:16:23;102994.34;;;-0.12;98.44
77725;BME280;66892;53.236;6.550;2023-02-15T02:19:05;102986.31;;;-0.15;97.91
77725;BME280;66892;53.236;6.550;2023-02-15T02:25:19;102988.56;;;-0.08;98.67
77725;BME280;66892;53.236;6.550;2023-02-15T02:27:57;102983.03;;;-0.12;98.35
77725;BME280;66892;53.236;6.550;2023-02-15T02:31:05;102986.44;;;-0.13;97.95
77725;BME280;66892;53.236;6.550;2023-02-15T02:33:44;102977.50;;;-0.17;98.65
77725;BME280;66892;53.236;6.550;2023-02-15T02:36:21;102987.53;;;-0.21;98.12
77725;BME280;66892;53.236;6.550;2023-02-15T02:39:06;102974.56;;;-0.21;98.91
77725;BME280;66892;53.236;6.550;2023-02-15T02:41:38;102973.53;;;-0.23;98.30
77725;BME280;66892;53.236;6.550;2023-02-15T02:44:13;102969.13;;;-0.24;98.37
77725;BME280;66892;53.236;6.550;2023-02-15T02:46:48;102967.22;;;-0.27;98.76
77725;BME280;66892;53.236;6.550;2023-02-15T02:49:29;102962.00;;;-0.27;97.76
77725;BME280;66892;53.236;6.550;2023-02-15T02:51:58;102960.88;;;-0.30;97.84
77725;BME280;66892;53.236;6.550;2023-02-15T02:54:24;102958.06;;;-0.33;98.41
77725;BME280;66892;53.236;6.550;2023-02-15T02:56:50;102950.47;;;-0.30;98.40
77725;BME280;66892;53.236;6.550;2023-02-15T02:59:19;102950.47;;;-0.30;97.90
77725;BME280;66892;53.236;6.550;2023-02-15T03:01:50;102950.03;;;-0.36;97.71
77725;BME280;66892;53.236;6.550;2023-02-15T03:04:23;102949.91;;;-0.38;98.21
77725;BME280;66892;53.236;6.550;2023-02-15T03:06:52;102945.06;;;-0.33;98.62
77725;BME280;66892;53.236;6.550;2023-02-15T03:09:25;102942.78;;;-0.40;97.94
77725;BME280;66892;53.236;6.550;2023-02-15T03:12:00;102943.25;;;-0.34;98.24
77725;BME280;66892;53.236;6.550;2023-02-15T03:14:29;102935.22;;;-0.37;98.72
77725;BME280;66892;53.236;6.550;2023-02-15T03:16:56;102940.31;;;-0.39;97.77
77725;BME280;66892;53.236;6.550;2023-02-15T03:19:28;102934.66;;;-0.33;99.00
77725;BME280;66892;53.236;6.550;2023-02-15T03:22:00;102938.16;;;-0.33;98.14
77725;BME280;66892;53.236;6.550;2023-02-15T03:24:37;102944.69;;;-0.38;98.48
77725;BME280;66892;53.236;6.550;2023-02-15T03:27:09;102937.13;;;-0.35;99.01
77725;BME280;66892;53.236;6.550;2023-02-15T03:29:37;102931.84;;;-0.36;98.36
77725;BME280;66892;53.236;6.550;2023-02-15T03:32:06;102923.91;;;-0.38;98.74
77725;BME280;66892;53.236;6.550;2023-02-15T03:34:35;102927.56;;;-0.36;99.06
77725;BME280;66892;53.236;6.550;2023-02-15T03:37:06;102923.25;;;-0.35;98.28
77725;BME280;66892;53.236;6.550;2023-02-15T03:39:37;102923.69;;;-0.41;97.83
77725;BME280;66892;53.236;6.550;2023-02-15T03:42:10;102915.22;;;-0.38;98.66
77725;BME280;66892;53.236;6.550;2023-02-15T03:44:46;102913.19;;;-0.31;98.11
77725;BME280;66892;53.236;6.550;2023-02-15T03:47:17;102907.88;;;-0.32;98.60
77725;BME280;66892;53.236;6.550;2023-02-15T03:49:50;102906.50;;;-0.27;98.81
77725;BME280;66892;53.236;6.550;2023-02-15T03:52:18;102903.34;;;-0.23;99.08
77725;BME280;66892;53.236;6.550;2023-02-15T03:54:46;102903.91;;;-0.27;98.54
77725;BME280;66892;53.236;6.550;2023-02-15T03:57:15;102904.91;;;-0.25;98.91
77725;BME280;66892;53.236;6.550;2023-02-15T04:00:04;102907.97;;;-0.31;98.73
77725;BME280;66892;53.236;6.550;2023-02-15T04:02:58;102908.34;;;-0.26;99.10
77725;BME280;66892;53.236;6.550;2023-02-15T04:05:29;102908.19;;;-0.28;98.29
77725;BME280;66892;53.236;6.550;2023-02-15T04:07:55;102904.13;;;-0.24;98.10
77725;BME280;66892;53.236;6.550;2023-02-15T04:10:21;102908.34;;;-0.26;99.09
77725;BME280;66892;53.236;6.550;2023-02-15T04:13:05;102903.13;;;-0.38;98.79
77725;BME280;66892;53.236;6.550;2023-02-15T04:15:31;102900.88;;;-0.33;98.47
77725;BME280;66892;53.236;6.550;2023-02-15T04:18:16;102898.97;;;-0.36;98.42
77725;BME280;66892;53.236;6.550;2023-02-15T04:20:45;102896.22;;;-0.37;98.14
77725;BME280;66892;53.236;6.550;2023-02-15T04:23:30;102894.09;;;-0.43;97.75
77725;BME280;66892;53.236;6.550;2023-02-15T04:26:15;102896.34;;;-0.47;98.26
77725;BME280;66892;53.236;6.550;2023-02-15T04:28:41;102901.44;;;-0.49;98.71
77725;BME280;66892;53.236;6.550;2023-02-15T04:31:07;102898.63;;;-0.52;98.58
77725;BME280;66892;53.236;6.550;2023-02-15T04:33:33;102896.47;;;-0.46;98.83
77725;BME280;66892;53.236;6.550;2023-02-15T04:36:01;102888.69;;;-0.46;99.31
77725;BME280;66892;53.236;6.550;2023-02-15T04:38:27;102889.22;;;-0.50;98.66
77725;BME280;66892;53.236;6.550;2023-02-15T04:40:53;102881.56;;;-0.48;98.72
77725;BME280;66892;53.236;6.550;2023-02-15T04:43:19;102877.94;;;-0.50;98.48
77725;BME280;66892;53.236;6.550;2023-02-15T04:45:48;102879.75;;;-0.49;99.01
77725;BME280;66892;53.236;6.550;2023-02-15T04:48:15;102875.34;;;-0.50;98.22
77725;BME280;66892;53.236;6.550;2023-02-15T04:50:42;102875.56;;;-0.47;99.15
77725;BME280;66892;53.236;6.550;2023-02-15T04:53:10;102871.81;;;-0.51;98.39
77725;BME280;66892;53.236;6.550;2023-02-15T04:55:36;102870.34;;;-0.47;98.76
77725;BME280;66892;53.236;6.550;2023-02-15T04:58:02;102864.03;;;-0.51;98.34
77725;BME280;66892;53.236;6.550;2023-02-15T05:00:28;102861.44;;;-0.51;97.54
77725;BME280;66892;53.236;6.550;2023-02-15T05:02:54;102864.03;;;-0.51;98.25
77725;BME280;66892;53.236;6.550;2023-02-15T05:05:20;102865.50;;;-0.55;98.66
77725;BME280;66892;53.236;6.550;2023-02-15T05:07:46;102864.50;;;-0.57;98.19
77725;BME280;66892;53.236;6.550;2023-02-15T05:10:14;102863.59;;;-0.57;98.38
77725;BME280;66892;53.236;6.550;2023-02-15T05:12:40;102864.28;;;-0.60;98.38
77725;BME280;66892;53.236;6.550;2023-02-15T05:15:06;102862.00;;;-0.67;98.08
77725;BME280;66892;53.236;6.550;2023-02-15T05:17:33;102862.81;;;-0.56;98.76
77725;BME280;66892;53.236;6.550;2023-02-15T05:19:59;102857.47;;;-0.58;98.88
77725;BME280;66892;53.236;6.550;2023-02-15T05:22:25;102853.63;;;-0.51;98.46
77725;BME280;66892;53.236;6.550;2023-02-15T05:24:51;102843.47;;;-0.48;98.39
77725;BME280;66892;53.236;6.550;2023-02-15T05:27:37;102846.53;;;-0.54;98.57
77725;BME280;66892;53.236;6.550;2023-02-15T05:30:22;102844.63;;;-0.56;98.00
77725;BME280;66892;53.236;6.550;2023-02-15T05:32:48;102841.09;;;-0.57;98.41
77725;BME280;66892;53.236;6.550;2023-02-15T05:35:15;102846.09;;;-0.60;98.35
77725;BME280;66892;53.236;6.550;2023-02-15T05:37:41;102843.47;;;-0.60;98.30
77725;BME280;66892;53.236;6.550;2023-02-15T05:40:08;102834.91;;;-0.59;97.96
77725;BME280;66892;53.236;6.550;2023-02-15T05:42:34;102828.03;;;-0.58;98.85
77725;BME280;66892;53.236;6.550;2023-02-15T05:45:01;102827.34;;;-0.56;98.70
77725;BME280;66892;53.236;6.550;2023-02-15T05:47:29;102829.13;;;-0.43;99.02
77725;BME280;66892;53.236;6.550;2023-02-15T05:49:55;102834.97;;;-0.34;99.10
77725;BME280;66892;53.236;6.550;2023-02-15T05:52:21;102831.16;;;-0.39;98.23
77725;BME280;66892;53.236;6.550;2023-02-15T05:54:47;102832.41;;;-0.45;98.03
77725;BME280;66892;53.236;6.550;2023-02-15T05:57:13;102831.06;;;-0.52;98.55
77725;BME280;66892;53.236;6.550;2023-02-15T05:59:39;102833.88;;;-0.49;98.50
77725;BME280;66892;53.236;6.550;2023-02-15T06:02:07;102831.97;;;-0.51;98.52
77725;BME280;66892;53.236;6.550;2023-02-15T06:04:33;102833.44;;;-0.55;98.24
77725;BME280;66892;53.236;6.550;2023-02-15T06:06:59;102831.50;;;-0.58;98.06
77725;BME280;66892;53.236;6.550;2023-02-15T06:09:25;102831.72;;;-0.55;97.87
77725;BME280;66892;53.236;6.550;2023-02-15T06:11:51;102828.03;;;-0.58;98.53
77725;BME280;66892;53.236;6.550;2023-02-15T06:14:17;102822.69;;;-0.60;97.95
77725;BME280;66892;53.236;6.550;2023-02-15T06:16:43;102831.06;;;-0.64;98.45
77725;BME280;66892;53.236;6.550;2023-02-15T06:19:11;102835.34;;;-0.64;98.48
77725;BME280;66892;53.236;6.550;2023-02-15T06:21:37;102832.09;;;-0.62;98.88
77725;BME280;66892;53.236;6.550;2023-02-15T06:24:03;102840.31;;;-0.56;99.09
77725;BME280;66892;53.236;6.550;2023-02-15T06:26:29;102830.84;;;-0.55;98.61
77725;BME280;66892;53.236;6.550;2023-02-15T06:28:55;102824.72;;;-0.44;98.90
77725;BME280;66892;53.236;6.550;2023-02-15T06:31:21;102824.84;;;-0.42;99.17
77725;BME280;66892;53.236;6.550;2023-02-15T06:33:47;102821.41;;;-0.41;99.38
77725;BME280;66892;53.236;6.550;2023-02-15T06:36:14;102830.22;;;-0.28;99.46
77725;BME280;66892;53.236;6.550;2023-02-15T06:38:41;102819.81;;;-0.28;99.22
77725;BME280;66892;53.236;6.550;2023-02-15T06:41:07;102821.72;;;-0.14;99.86
77725;BME280;66892;53.236;6.550;2023-02-15T06:43:33;102832.56;;;0.17;99.91
77725;BME280;66892;53.236;6.550;2023-02-15T06:46:00;102827.84;;;0.12;99.81
77725;BME280;66892;53.236;6.550;2023-02-15T06:48:26;102832.56;;;0.29;100.00
77725;BME280;66892;53.236;6.550;2023-02-15T06:50:52;102833.09;;;0.49;100.00
77725;BME280;66892;53.236;6.550;2023-02-15T06:53:19;102825.66;;;0.42;100.00
77725;BME280;66892;53.236;6.550;2023-02-15T06:55:45;102823.59;;;0.50;99.69
77725;BME280;66892;53.236;6.550;2023-02-15T06:58:11;102813.41;;;0.53;100.00
77725;BME280;66892;53.236;6.550;2023-02-15T07:00:37;102823.44;;;0.60;100.00
77725;BME280;66892;53.236;6.550;2023-02-15T07:03:03;102821.25;;;0.66;100.00
77725;BME280;66892;53.236;6.550;2023-02-15T07:05:33;102817.94;;;0.69;100.00
77725;BME280;66892;53.236;6.550;2023-02-15T07:08:00;102818.84;;;0.69;100.00
77725;BME280;66892;53.236;6.550;2023-02-15T07:10:27;102819.25;;;0.75;100.00
77725;BME280;66892;53.236;6.550;2023-02-15T07:12:54;102828.38;;;0.82;100.00
77725;BME280;66892;53.236;6.550;2023-02-15T07:15:20;102816.38;;;0.97;100.00
77725;BME280;66892;53.236;6.550;2023-02-15T07:17:47;102810.50;;;0.99;100.00
77725;BME280;66892;53.236;6.550;2023-02-15T07:20:17;102807.91;;;0.99;100.00
77725;BME280;66892;53.236;6.550;2023-02-15T07:22:44;102809.28;;;0.94;100.00
77725;BME280;66892;53.236;6.550;2023-02-15T07:25:11;102809.00;;;0.90;99.61
77725;BME280;66892;53.236;6.550;2023-02-15T07:27:39;102811.88;;;0.94;98.80
77725;BME280;66892;53.236;6.550;2023-02-15T07:30:08;102811.59;;;1.03;100.00
77725;BME280;66892;53.236;6.550;2023-02-15T07:32:34;102810.47;;;1.13;99.34
77725;BME280;66892;53.236;6.550;2023-02-15T07:35:00;102808.50;;;1.22;98.95
77725;BME280;66892;53.236;6.550;2023-02-15T07:37:27;102809.09;;;1.18;99.56
77725;BME280;66892;53.236;6.550;2023-02-15T07:39:53;102811.78;;;1.19;99.43
77725;BME280;66892;53.236;6.550;2023-02-15T07:42:19;102808.59;;;1.23;98.75
77725;BME280;66892;53.236;6.550;2023-02-15T07:44:48;102807.09;;;1.27;98.94
77725;BME280;66892;53.236;6.550;2023-02-15T07:47:14;102806.09;;;1.38;99.20
77725;BME280;66892;53.236;6.550;2023-02-15T07:49:40;102802.66;;;1.39;98.84
77725;BME280;66892;53.236;6.550;2023-02-15T07:52:06;102799.97;;;1.37;98.32
77725;BME280;66892;53.236;6.550;2023-02-15T07:54:32;102795.97;;;1.42;98.76
77725;BME280;66892;53.236;6.550;2023-02-15T07:56:58;102798.75;;;1.45;98.24
77725;BME280;66892;53.236;6.550;2023-02-15T07:59:24;102795.25;;;1.45;98.36
77725;BME280;66892;53.236;6.550;2023-02-15T08:01:51;102782.81;;;1.54;98.27
77725;BME280;66892;53.236;6.550;2023-02-15T08:04:19;102778.47;;;1.54;98.60
77725;BME280;66892;53.236;6.550;2023-02-15T08:06:45;102779.31;;;1.53;98.43
77725;BME280;66892;53.236;6.550;2023-02-15T08:09:11;102777.38;;;1.51;98.60
77725;BME280;66892;53.236;6.550;2023-02-15T08:11:38;102785.00;;;1.61;98.79
77725;BME280;66892;53.236;6.550;2023-02-15T08:14:08;102784.00;;;1.59;98.83
77725;BME280;66892;53.236;6.550;2023-02-15T08:16:36;102788.31;;;1.58;99.39
77725;BME280;66892;53.236;6.550;2023-02-15T08:19:06;102773.34;;;1.69;98.66
77725;BME280;66892;53.236;6.550;2023-02-15T08:21:33;102769.25;;;1.73;99.34
77725;BME280;66892;53.236;6.550;2023-02-15T08:24:00;102773.03;;;1.78;98.00
77725;BME280;66892;53.236;6.550;2023-02-15T08:26:28;102768.25;;;1.98;98.34
77725;BME280;66892;53.236;6.550;2023-02-15T08:28:55;102764.03;;;2.00;98.77
77725;BME280;66892;53.236;6.550;2023-02-15T08:31:22;102762.13;;;1.98;97.85
77725;BME280;66892;53.236;6.550;2023-02-15T08:33:50;102761.78;;;2.06;98.59
77725;BME280;66892;53.236;6.550;2023-02-15T08:36:19;102769.81;;;2.09;98.32
77725;BME280;66892;53.236;6.550;2023-02-15T08:38:46;102763.97;;;2.13;97.83
77725;BME280;66892;53.236;6.550;2023-02-15T08:41:14;102761.47;;;2.15;97.58
77725;BME280;66892;53.236;6.550;2023-02-15T08:43:41;102760.56;;;2.15;98.54
77725;BME280;66892;53.236;6.550;2023-02-15T08:46:08;102754.81;;;2.20;98.22
77725;BME280;66892;53.236;6.550;2023-02-15T08:48:35;102743.22;;;2.30;97.94
77725;BME280;66892;53.236;6.550;2023-02-15T08:51:05;102746.81;;;2.32;97.59
77725;BME280;66892;53.236;6.550;2023-02-15T08:53:33;102745.56;;;2.40;97.47
77725;BME280;66892;53.236;6.550;2023-02-15T08:55:59;102750.44;;;2.48;97.55
77725;BME280;66892;53.236;6.550;2023-02-15T08:58:25;102739.72;;;2.58;97.99
77725;BME280;66892;53.236;6.550;2023-02-15T09:00:51;102736.94;;;2.55;97.83
77725;BME280;66892;53.236;6.550;2023-02-15T09:03:17;102748.28;;;2.71;97.05
77725;BME280;66892;53.236;6.550;2023-02-15T09:05:43;102737.28;;;2.76;96.74
77725;BME280;66892;53.236;6.550;2023-02-15T09:08:09;102738.28;;;2.78;97.14
77725;BME280;66892;53.236;6.550;2023-02-15T09:10:37;102740.78;;;2.77;96.95
77725;BME280;66892;53.236;6.550;2023-02-15T09:13:03;102735.84;;;2.81;96.88
77725;BME280;66892;53.236;6.550;2023-02-15T09:15:29;102734.56;;;2.89;96.46
77725;BME280;66892;53.236;6.550;2023-02-15T09:17:55;102728.63;;;2.92;96.67
77725;BME280;66892;53.236;6.550;2023-02-15T09:20:21;102737.16;;;3.04;96.20
77725;BME280;66892;53.236;6.550;2023-02-15T09:22:48;102736.25;;;3.03;97.01
77725;BME280;66892;53.236;6.550;2023-02-15T09:25:14;102725.72;;;3.02;96.94
77725;BME280;66892;53.236;6.550;2023-02-15T09:27:41;102731.94;;;3.04;97.10
77725;BME280;66892;53.236;6.550;2023-02-15T09:30:08;102732.91;;;3.06;97.13
77725;BME280;66892;53.236;6.550;2023-02-15T09:32:34;102721.09;;;3.12;96.71
77725;BME280;66892;53.236;6.550;2023-02-15T09:35:00;102717.56;;;3.27;96.01
77725;BME280;66892;53.236;6.550;2023-02-15T09:37:26;102720.25;;;3.28;96.22
77725;BME280;66892;53.236;6.550;2023-02-15T09:39:52;102717.00;;;3.32;96.10
77725;BME280;66892;53.236;6.550;2023-02-15T09:42:30;102720.69;;;3.36;95.79
77725;BME280;66892;53.236;6.550;2023-02-15T09:45:13;102723.22;;;3.50;96.01
77725;BME280;66892;53.236;6.550;2023-02-15T09:47:55;102716.94;;;3.47;96.57
77725;BME280;66892;53.236;6.550;2023-02-15T09:50:33;102727.38;;;3.47;96.45
77725;BME280;66892;53.236;6.550;2023-02-15T09:55:57;102721.03;;;3.58;96.07
77725;BME280;66892;53.236;6.550;2023-02-15T09:58:33;102715.56;;;3.69;95.67
77725;BME280;66892;53.236;6.550;2023-02-15T10:01:09;102715.03;;;3.75;95.49
77725;BME280;66892;53.236;6.550;2023-02-15T10:03:59;102716.97;;;3.79;95.58
77725;BME280;66892;53.236;6.550;2023-02-15T10:06:36;102719.84;;;3.84;95.55
77725;BME280;66892;53.236;6.550;2023-02-15T10:09:17;102718.94;;;3.99;94.77
77725;BME280;66892;53.236;6.550;2023-02-15T10:12:01;102714.34;;;3.95;95.39
77725;BME280;66892;53.236;6.550;2023-02-15T10:14:40;102718.44;;;4.06;95.09
77725;BME280;66892;53.236;6.550;2023-02-15T10:17:19;102716.47;;;4.18;95.01
77725;BME280;66892;53.236;6.550;2023-02-15T10:19:58;102716.13;;;4.29;94.71
77725;BME280;66892;53.236;6.550;2023-02-15T10:22:36;102712.28;;;4.22;95.07
77725;BME280;66892;53.236;6.550;2023-02-15T10:25:15;102711.31;;;4.20;94.87
77725;BME280;66892;53.236;6.550;2023-02-15T10:27:47;102721.47;;;4.30;95.19
77725;BME280;66892;53.236;6.550;2023-02-15T10:30:14;102721.63;;;4.33;95.04
77725;BME280;66892;53.236;6.550;2023-02-15T10:32:51;102713.00;;;4.36;95.53
77725;BME280;66892;53.236;6.550;2023-02-15T10:35:24;102707.50;;;4.47;95.19
77725;BME280;66892;53.236;6.550;2023-02-15T10:38:01;102704.69;;;4.60;93.53
77725;BME280;66892;53.236;6.550;2023-02-15T10:40:34;102708.50;;;4.67;92.95
77725;BME280;66892;53.236;6.550;2023-02-15T10:43:13;102705.63;;;4.62;94.43
77725;BME280;66892;53.236;6.550;2023-02-15T10:45:49;102696.06;;;4.63;94.99
77725;BME280;66892;53.236;6.550;2023-02-15T10:48:37;102700.72;;;4.68;94.25
77725;BME280;66892;53.236;6.550;2023-02-15T10:51:09;102703.19;;;4.83;93.67
77725;BME280;66892;53.236;6.550;2023-02-15T10:53:50;102695.88;;;4.94;93.56
77725;BME280;66892;53.236;6.550;2023-02-15T10:56:24;102690.13;;;5.01;93.10
77725;BME280;66892;53.236;6.550;2023-02-15T10:59:10;102687.09;;;5.11;93.20
77725;BME280;66892;53.236;6.550;2023-02-15T11:01:45;102692.03;;;5.22;93.12
77725;BME280;66892;53.236;6.550;2023-02-15T11:04:45;102687.47;;;5.36;91.05
77725;BME280;66892;53.236;6.550;2023-02-15T11:07:17;102681.22;;;5.34;93.18
77725;BME280;66892;53.236;6.550;2023-02-15T11:09:48;102682.25;;;5.38;92.79
77725;BME280;66892;53.236;6.550;2023-02-15T11:12:19;102682.25;;;5.55;92.73
77725;BME280;66892;53.236;6.550;2023-02-15T11:14:50;102672.75;;;5.59;93.49
77725;BME280;66892;53.236;6.550;2023-02-15T11:17:23;102669.41;;;5.61;93.16
77725;BME280;66892;53.236;6.550;2023-02-15T11:19:56;102669.66;;;5.67;91.23
77725;BME280;66892;53.236;6.550;2023-02-15T11:22:26;102670.75;;;5.72;93.79
77725;BME280;66892;53.236;6.550;2023-02-15T11:24:53;102664.75;;;5.75;92.55
77725;BME280;66892;53.236;6.550;2023-02-15T11:27:21;102666.81;;;5.82;92.88
77725;BME280;66892;53.236;6.550;2023-02-15T11:29:57;102662.59;;;6.03;89.63
77725;BME280;66892;53.236;6.550;2023-02-15T11:32:26;102663.88;;;6.13;91.23
77725;BME280;66892;53.236;6.550;2023-02-15T11:34:57;102661.44;;;6.17;92.43
77725;BME280;66892;53.236;6.550;2023-02-15T11:37:29;102664.34;;;6.44;90.02
77725;BME280;66892;53.236;6.550;2023-02-15T11:39:59;102655.19;;;6.55;89.87
77725;BME280;66892;53.236;6.550;2023-02-15T11:42:27;102644.03;;;6.61;90.04
77725;BME280;66892;53.236;6.550;2023-02-15T11:44:59;102644.09;;;6.62;92.21
77725;BME280;66892;53.236;6.550;2023-02-15T11:47:27;102632.88;;;6.66;89.42
77725;BME280;66892;53.236;6.550;2023-02-15T11:49:56;102632.09;;;6.69;90.41
77725;BME280;66892;53.236;6.550;2023-02-15T11:52:22;102631.19;;;6.89;88.09
77725;BME280;66892;53.236;6.550;2023-02-15T11:54:50;102631.31;;;6.92;87.74
77725;BME280;66892;53.236;6.550;2023-02-15T11:57:21;102624.47;;;6.97;89.05
77725;BME280;66892;53.236;6.550;2023-02-15T11:59:52;102619.72;;;7.09;88.49
77725;BME280;66892;53.236;6.550;2023-02-15T12:02:21;102613.25;;;7.23;85.56
77725;BME280;66892;53.236;6.550;2023-02-15T12:04:51;102616.78;;;7.24;86.93
77725;BME280;66892;53.236;6.550;2023-02-15T12:07:22;102616.22;;;7.32;87.50
77725;BME280;66892;53.236;6.550;2023-02-15T12:09:57;102612.03;;;7.37;86.43
77725;BME280;66892;53.236;6.550;2023-02-15T12:12:27;102608.75;;;7.43;84.06
77725;BME280;66892;53.236;6.550;2023-02-15T12:14:56;102601.63;;;7.40;85.55
77725;BME280;66892;53.236;6.550;2023-02-15T12:17:24;102596.97;;;7.33;87.45
77725;BME280;66892;53.236;6.550;2023-02-15T12:19:52;102594.31;;;7.32;86.92
77725;BME280;66892;53.236;6.550;2023-02-15T12:22:24;102592.94;;;7.43;85.40
77725;BME280;66892;53.236;6.550;2023-02-15T12:24:52;102595.69;;;7.46;84.31
77725;BME280;66892;53.236;6.550;2023-02-15T12:27:21;102593.41;;;7.55;83.04
77725;BME280;66892;53.236;6.550;2023-02-15T12:29:52;102587.66;;;7.41;84.66
77725;BME280;66892;53.236;6.550;2023-02-15T12:32:22;102593.44;;;7.33;85.78
77725;BME280;66892;53.236;6.550;2023-02-15T12:34:50;102579.78;;;7.43;85.72
77725;BME280;66892;53.236;6.550;2023-02-15T12:37:20;102577.94;;;7.64;81.58
77725;BME280;66892;53.236;6.550;2023-02-15T12:39:53;102573.84;;;7.72;82.77
77725;BME280;66892;53.236;6.550;2023-02-15T12:42:20;102558.41;;;7.58;85.19
77725;BME280;66892;53.236;6.550;2023-02-15T12:44:59;102574.13;;;7.80;83.58
77725;BME280;66892;53.236;6.550;2023-02-15T12:47:26;102563.63;;;7.81;82.39
77725;BME280;66892;53.236;6.550;2023-02-15T12:50:05;102560.50;;;7.68;86.21
77725;BME280;66892;53.236;6.550;2023-02-15T12:52:32;102544.91;;;7.74;83.66
77725;BME280;66892;53.236;6.550;2023-02-15T12:55:10;102534.66;;;7.81;83.67
77725;BME280;66892;53.236;6.550;2023-02-15T12:57:36;102533.84;;;7.82;84.87
77725;BME280;66892;53.236;6.550;2023-02-15T13:00:05;102533.56;;;8.00;82.91
77725;BME280;66892;53.236;6.550;2023-02-15T13:02:36;102527.41;;;8.26;81.21
77725;BME280;66892;53.236;6.550;2023-02-15T13:05:17;102529.38;;;8.32;82.89
77725;BME280;66892;53.236;6.550;2023-02-15T13:07:45;102522.56;;;8.38;81.78
77725;BME280;66892;53.236;6.550;2023-02-15T13:10:22;102522.63;;;8.40;81.33
77725;BME280;66892;53.236;6.550;2023-02-15T13:12:50;102515.19;;;8.54;80.13
77725;BME280;66892;53.236;6.550;2023-02-15T13:15:38;102494.28;;;8.60;78.99